Falcon Heights, Minnesota
Current Conditions -  °F | °C
As of 2:53 PM on Friday 19 Dec 2014 (Local Time) from KSTP Reporting Station
Overcast Overcast  
Wind Chill: 19°   Ceiling: 1500
Heat Index: 28°   Visibility: 7mi
Dew Point: 23°   Wind: 9mph
Humidity: 81%   Direction: 130°SE
Pressure: 30.21"   Gusts: NA
Location:  45.0123°N, 93.1559°W
Report Text: KSTP 192053Z 13008KT 7SM OVC015 M02/M05 A3021 RMK AO2 SLP238 T10221050 56015
Loading
Personal Weather Stations






























Interactive Weather Map New forecast layout! Learn more

10-Day Weather Forecast

Advertisements
Track Severe Weather on mobile